Time;durP1;ratioP1;P1;durP2;ratioP2;P2;SDS_P1;SDS_P2;PMS_P1;PMS_P2;Temp;Humidity;BMP_temperature;BMP_pressure;BME280_temperature;BME280_humidity;BME280_pressure;Samples;Min_cycle;Max_cycle;Signal;HPM_P1;HPM_P2
2021/12/09 00:01:26;;;;;;;13.08;6.75;;;;;;;0.23;100.00;99630.41;1737632;82;21039;-86
2021/12/09 00:03:57;;;;;;;9.90;5.70;;;;;;;0.24;100.00;99629.56;1735947;82;21105;-86
2021/12/09 00:06:28;;;;;;;9.45;5.97;;;;;;;0.25;100.00;99633.86;1735659;82;21041;-86
2021/12/09 00:08:58;;;;;;;11.40;5.85;;;;;;;0.26;100.00;99631.72;1735468;82;21141;-85
2021/12/09 00:11:25;;;;;;;12.23;6.00;;;;;;;0.27;100.00;99633.42;1735631;82;21063;-85
2021/12/09 00:13:52;;;;;;;8.45;5.50;;;;;;;0.27;100.00;99636.02;1736206;82;21107;-84
2021/12/09 00:16:19;;;;;;;11.40;6.17;;;;;;;0.29;100.00;99635.58;1717245;83;21098;-84
2021/12/09 00:18:45;;;;;;;10.38;5.85;;;;;;;0.28;100.00;99632.58;1736461;81;21040;-83
2021/12/09 00:21:12;;;;;;;9.60;5.78;;;;;;;0.27;100.00;99641.20;1735719;82;21098;-85
2021/12/09 00:23:38;;;;;;;10.65;5.70;;;;;;;0.26;100.00;99643.37;1717082;83;21086;-84
2021/12/09 00:26:05;;;;;;;10.90;6.20;;;;;;;0.23;100.00;99648.53;1736269;82;21683;-85
2021/12/09 00:28:32;;;;;;;11.18;5.75;;;;;;;0.25;100.00;99651.98;1735669;82;21092;-85
2021/12/09 00:31:00;;;;;;;9.10;5.53;;;;;;;0.23;100.00;99653.72;1702650;83;21101;-83
2021/12/09 00:33:26;;;;;;;8.13;4.72;;;;;;;0.20;100.00;99650.27;1720586;81;21592;-86
2021/12/09 00:35:58;;;;;;;10.30;6.22;;;;;;;0.22;100.00;99653.30;1710220;82;21099;-84
2021/12/09 00:38:35;;;;;;;8.88;5.05;;;;;;;0.20;100.00;99652.86;1732902;82;21014;-85
2021/12/09 00:41:06;;;;;;;11.53;6.58;;;;;;;0.22;100.00;99650.72;1739385;81;21021;-84
2021/12/09 00:43:33;;;;;;;9.38;5.92;;;;;;;0.29;100.00;99656.30;1749450;81;21024;-85
2021/12/09 00:46:00;;;;;;;8.53;5.28;;;;;;;0.28;100.00;99661.06;1706495;83;21829;-85
2021/12/09 00:48:27;;;;;;;13.65;6.50;;;;;;;0.32;100.00;99661.05;1734512;82;21057;-85
2021/12/09 00:50:56;;;;;;;11.45;6.03;;;;;;;0.32;100.00;99658.87;1735517;82;21236;-84
2021/12/09 00:53:23;;;;;;;12.20;6.62;;;;;;;0.31;100.00;99659.75;1733216;82;21139;-85
2021/12/09 00:55:50;;;;;;;9.78;6.05;;;;;;;0.31;100.00;99663.63;1717915;83;21103;-83
2021/12/09 00:58:18;;;;;;;9.38;5.60;;;;;;;0.31;100.00;99669.67;1717176;83;21159;-85
2021/12/09 01:00:45;;;;;;;9.18;5.87;;;;;;;0.32;100.00;99665.34;1720951;83;21236;-85
2021/12/09 01:03:11;;;;;;;9.90;5.60;;;;;;;0.34;100.00;99667.50;1723847;82;21040;-84
2021/12/09 01:05:37;;;;;;;9.83;6.33;;;;;;;0.31;100.00;99663.63;1721461;83;21037;-85
2021/12/09 01:08:05;;;;;;;9.93;6.20;;;;;;;0.32;100.00;99669.23;1720301;83;21120;-85
2021/12/09 01:10:33;;;;;;;9.73;5.45;;;;;;;0.32;100.00;99662.75;1717648;82;21656;-86
2021/12/09 01:13:00;;;;;;;8.30;5.47;;;;;;;0.33;100.00;99664.50;1731256;82;21112;-85
2021/12/09 01:15:28;;;;;;;10.10;5.53;;;;;;;0.37;100.00;99662.33;1731251;82;21515;-85
2021/12/09 01:17:55;;;;;;;9.28;5.75;;;;;;;0.36;100.00;99665.77;1731544;82;21123;-82
2021/12/09 01:20:25;;;;;;;10.55;6.08;;;;;;;0.35;100.00;99667.51;1732242;82;21072;-84
2021/12/09 01:22:53;;;;;;;8.63;5.60;;;;;;;0.35;100.00;99670.09;1733580;82;22340;-82
2021/12/09 01:25:19;;;;;;;9.03;5.97;;;;;;;0.37;100.00;99668.81;1755392;81;21024;-84
2021/12/09 01:27:49;;;;;;;8.65;5.37;;;;;;;0.36;100.00;99667.06;1755554;81;21076;-86
2021/12/09 01:30:18;;;;;;;8.35;4.67;;;;;;;0.31;100.00;99674.00;1760069;81;21131;-87
2021/12/09 01:32:50;;;;;;;9.75;5.70;;;;;;;0.28;100.00;99667.54;1743764;81;21578;-86
2021/12/09 01:35:27;;;;;;;8.68;5.40;;;;;;;0.28;100.00;99672.72;1772628;79;21254;-86
2021/12/09 01:37:58;;;;;;;8.83;5.85;;;;;;;0.27;100.00;99673.56;1765433;80;59015;-83
2021/12/09 01:40:26;;;;;;;10.53;5.05;;;;;;;0.26;100.00;99671.86;1773109;80;21679;-85
2021/12/09 01:42:53;;;;;;;7.33;4.83;;;;;;;0.24;100.00;99673.59;1767805;80;21061;-85
2021/12/09 01:45:19;;;;;;;10.35;5.45;;;;;;;0.22;100.00;99674.88;1779702;80;21064;-85
2021/12/09 01:47:46;;;;;;;10.00;5.45;;;;;;;0.27;100.00;99681.34;1782086;80;22101;-85
2021/12/09 01:50:12;;;;;;;9.80;5.67;;;;;;;0.26;100.00;99675.30;1782291;80;22170;-85
2021/12/09 01:52:39;;;;;;;12.80;6.33;;;;;;;0.27;100.00;99674.86;1784051;80;21073;-86
2021/12/09 01:55:07;;;;;;;9.35;5.25;;;;;;;0.27;100.00;99671.84;1786398;80;20952;-84
2021/12/09 01:57:35;;;;;;;10.40;5.72;;;;;;;0.27;100.00;99676.16;1785422;80;21068;-86
2021/12/09 02:00:06;;;;;;;11.22;5.75;;;;;;;0.25;100.00;99677.45;1784788;80;21049;-86
2021/12/09 02:02:33;;;;;;;8.00;4.97;;;;;;;0.24;100.00;99682.66;1785314;78;20966;-86
2021/12/09 02:05:00;;;;;;;8.18;5.58;;;;;;;0.22;100.00;99680.49;1788485;78;20970;-84
2021/12/09 02:07:27;;;;;;;10.08;6.50;;;;;;;0.22;100.00;99688.27;1785594;78;21069;-86
2021/12/09 02:09:54;;;;;;;9.63;5.80;;;;;;;0.19;100.00;99682.66;1776798;80;21040;-85
2021/12/09 02:12:21;;;;;;;11.03;6.30;;;;;;;0.20;100.00;99684.38;1775416;80;21100;-85
2021/12/09 02:14:48;;;;;;;11.33;6.00;;;;;;;0.22;100.00;99681.34;1766843;80;21049;-85
2021/12/09 02:17:15;;;;;;;10.45;6.22;;;;;;;0.20;100.00;99690.41;1774178;80;21013;-85
2021/12/09 02:19:43;;;;;;;8.63;5.55;;;;;;;0.22;100.00;99690.85;1786111;80;21056;-86
2021/12/09 02:22:12;;;;;;;11.43;5.85;;;;;;;0.19;100.00;99695.17;1788494;80;20962;-86
2021/12/09 02:24:39;;;;;;;10.85;6.28;;;;;;;0.23;100.00;99701.63;1778397;79;21324;-88
2021/12/09 02:27:06;;;;;;;9.43;5.60;;;;;;;0.18;100.00;99698.64;1772860;81;21044;-83
2021/12/09 02:29:37;;;;;;;11.03;6.20;;;;;;;0.18;100.00;99708.11;1743907;81;21738;-85
2021/12/09 02:32:04;;;;;;;9.88;5.40;;;;;;;0.19;100.00;99701.64;1773624;80;21001;-85
2021/12/09 02:34:31;;;;;;;10.60;5.25;;;;;;;0.18;100.00;99707.70;1786417;80;21184;-85
2021/12/09 02:36:57;;;;;;;10.10;5.95;;;;;;;0.16;100.00;99710.72;1786698;80;21412;-87
2021/12/09 02:39:26;;;;;;;9.98;5.53;;;;;;;0.19;100.00;99715.03;1786262;80;21056;-86
2021/12/09 02:41:52;;;;;;;8.43;5.17;;;;;;;0.17;100.00;99716.76;1786719;80;21040;-85
2021/12/09 02:44:20;;;;;;;8.93;5.55;;;;;;;0.17;100.00;99721.50;1788219;80;21056;-84
2021/12/09 02:46:51;;;;;;;10.03;5.42;;;;;;;0.19;100.00;99721.06;1788470;80;21087;-86
2021/12/09 02:49:21;;;;;;;10.20;6.47;;;;;;;0.18;100.00;99724.53;1784164;80;21027;-86
2021/12/09 02:51:49;;;;;;;11.15;6.30;;;;;;;0.20;100.00;99726.66;1777179;80;21013;-86
2021/12/09 02:54:17;;;;;;;12.40;6.35;;;;;;;0.17;100.00;99726.67;1782742;80;21061;-86
2021/12/09 02:56:46;;;;;;;11.80;6.00;;;;;;;0.16;100.00;99730.55;1761025;80;21591;-87
2021/12/09 02:59:12;;;;;;;10.63;6.30;;;;;;;0.18;100.00;99727.13;1787104;80;21049;-87
2021/12/09 03:01:52;;;;;;;11.48;6.90;;;;;;;0.17;100.00;99729.70;1777887;80;21756;-85
2021/12/09 03:04:12;;;;;;;11.43;6.95;;;;;;;0.15;100.00;99724.52;1753484;81;21496;-86
2021/12/09 03:06:42;;;;;;;11.88;6.72;;;;;;;0.14;100.00;99725.40;1757501;81;21103;-86
2021/12/09 03:09:15;;;;;;;14.00;7.47;;;;;;;0.14;100.00;99729.72;1758252;81;20986;-86
2021/12/09 03:11:42;;;;;;;13.25;7.58;;;;;;;0.13;100.00;99733.16;1757864;81;21064;-88
2021/12/09 03:14:09;;;;;;;14.25;8.35;;;;;;;0.11;100.00;99735.73;1756680;81;21199;-86
2021/12/09 03:16:39;;;;;;;15.25;8.85;;;;;;;0.08;100.00;99737.48;1756224;81;21063;-87
2021/12/09 03:19:07;;;;;;;13.68;7.97;;;;;;;0.08;100.00;99737.48;1756743;81;21040;-86
2021/12/09 03:21:42;;;;;;;15.75;8.93;;;;;;;0.07;100.00;99731.86;1756448;81;21092;-86
2021/12/09 03:24:12;;;;;;;15.75;8.55;;;;;;;0.06;100.00;99734.88;1756163;81;21012;-86
2021/12/09 03:26:46;;;;;;;15.85;8.48;;;;;;;0.06;100.00;99734.88;1756002;81;21120;-86
2021/12/09 03:29:20;;;;;;;17.48;9.65;;;;;;;0.06;100.00;99731.00;1754840;81;21519;-85
2021/12/09 03:31:50;;;;;;;15.00;8.68;;;;;;;0.03;100.00;99735.34;1756940;81;21059;-86
2021/12/09 03:34:19;;;;;;;19.73;9.53;;;;;;;0.01;100.00;99735.33;1756715;81;21213;-85
2021/12/09 03:36:52;;;;;;;18.07;10.40;;;;;;;-0.01;100.00;99733.17;1757148;81;21007;-86
2021/12/09 03:39:21;;;;;;;15.15;9.58;;;;;;;-0.01;100.00;99740.94;1756879;81;21120;-87
2021/12/09 03:41:51;;;;;;;16.23;8.80;;;;;;;-0.01;100.00;99744.81;1756708;81;20992;-88
2021/12/09 03:44:18;;;;;;;14.80;9.07;;;;;;;0.00;100.00;99747.86;1757008;80;21107;-87
2021/12/09 03:46:44;;;;;;;15.80;9.23;;;;;;;0.00;100.00;99747.86;1768801;80;21457;-88
2021/12/09 03:49:11;;;;;;;20.75;9.70;;;;;;;0.00;100.00;99738.80;1751761;79;30543;-87
2021/12/09 03:51:37;;;;;;;16.60;9.63;;;;;;;0.01;100.00;99751.30;1729505;82;21114;-89
2021/12/09 03:54:07;;;;;;;18.02;9.80;;;;;;;0.02;100.00;99750.42;1746086;80;21082;-87
2021/12/09 03:56:33;;;;;;;16.07;9.53;;;;;;;0.03;100.00;99754.31;1784959;80;21049;-88
2021/12/09 03:59:00;;;;;;;15.32;9.15;;;;;;;0.02;100.00;99742.22;1784358;80;21084;-87
2021/12/09 04:01:27;;;;;;;15.43;9.30;;;;;;;0.01;100.00;99748.27;1784550;80;21040;-89
2021/12/09 04:03:53;;;;;;;18.42;9.85;;;;;;;-0.02;100.00;99747.84;1788550;78;21174;-85
2021/12/09 04:06:21;;;;;;;15.05;8.30;;;;;;;-0.02;100.00;99752.17;1788267;78;21077;-87
2021/12/09 04:08:48;;;;;;;20.30;9.50;;;;;;;-0.03;100.00;99749.98;1750218;81;21041;-88
2021/12/09 04:11:17;;;;;;;15.38;8.88;;;;;;;-0.01;100.00;99757.33;1753478;80;20960;-87
2021/12/09 04:13:44;;;;;;;18.20;10.45;;;;;;;-0.02;100.00;99746.99;1726287;82;21542;-87
2021/12/09 04:16:11;;;;;;;15.40;8.80;;;;;;;-0.03;100.00;99750.42;1724463;83;21123;-86
2021/12/09 04:18:42;;;;;;;15.72;8.48;;;;;;;-0.03;100.00;99751.72;1723057;82;21071;-87
2021/12/09 04:21:09;;;;;;;18.77;10.15;;;;;;;-0.04;100.00;99746.12;1722989;82;21074;-86
2021/12/09 04:23:35;;;;;;;15.60;8.80;;;;;;;0.00;100.00;99754.33;1722796;83;21761;-87
2021/12/09 04:26:01;;;;;;;17.37;9.60;;;;;;;-0.02;100.00;99749.58;1722765;82;21004;-86
2021/12/09 04:28:29;;;;;;;20.12;9.60;;;;;;;-0.04;100.00;99752.16;1723545;82;21550;-85
2021/12/09 04:30:56;;;;;;;16.73;9.85;;;;;;;-0.03;100.00;99760.78;1722995;83;21078;-85
2021/12/09 04:33:22;;;;;;;17.45;9.73;;;;;;;-0.05;100.00;99757.33;1725517;82;21282;-86
2021/12/09 04:35:49;;;;;;;16.60;9.45;;;;;;;-0.03;100.00;99759.48;1725519;82;21073;-87
2021/12/09 04:38:16;;;;;;;16.62;9.00;;;;;;;-0.04;100.00;99757.33;1743865;82;21076;-88
2021/12/09 04:40:43;;;;;;;15.28;9.03;;;;;;;-0.04;100.00;99759.06;1688155;85;21122;-85
2021/12/09 04:43:11;;;;;;;15.32;8.93;;;;;;;-0.03;100.00;99764.66;1674125;85;21056;-88
2021/12/09 04:45:40;;;;;;;14.60;8.73;;;;;;;-0.05;100.00;99757.33;1685178;84;21077;-85
2021/12/09 04:48:07;;;;;;;16.15;9.05;;;;;;;-0.09;100.00;99753.00;1653783;82;107292;-86
2021/12/09 04:50:36;;;;;;;17.00;8.43;;;;;;;-0.03;100.00;99764.22;1664277;85;21066;-88
2021/12/09 04:53:04;;;;;;;17.00;9.45;;;;;;;-0.02;100.00;99769.00;1686792;85;21117;-85
2021/12/09 04:55:35;;;;;;;18.20;9.45;;;;;;;-0.01;100.00;99779.77;1676454;84;21108;-86
2021/12/09 04:58:01;;;;;;;;;;;;;;;-0.02;100.00;99778.05;1679805;83;21080;-87
2021/12/09 05:00:32;;;;;;;21.75;10.95;;;;;;;0.00;100.00;99787.98;1664466;84;20156;-88
2021/12/09 05:03:06;;;;;;;19.52;10.30;;;;;;;0.02;100.00;99792.70;1689899;84;21048;-86
2021/12/09 05:05:37;;;;;;;20.95;10.55;;;;;;;0.01;100.00;99796.17;1695855;84;21047;-85
2021/12/09 05:08:08;;;;;;;33.78;14.73;;;;;;;0.01;100.00;99801.34;1724662;81;21120;-90
2021/12/09 05:10:55;;;;;;;23.67;10.60;;;;;;;0.02;100.00;99800.91;1727690;82;21111;-89
2021/12/09 05:13:08;;;;;;;28.60;11.68;;;;;;;0.02;100.00;99800.91;1719553;82;21025;-89
2021/12/09 05:15:35;;;;;;;22.27;11.05;;;;;;;0.01;100.00;99792.72;1719091;82;21004;-88
2021/12/09 05:18:02;;;;;;;21.75;10.98;;;;;;;-0.01;100.00;99800.04;1737435;82;21081;-90
2021/12/09 05:20:29;;;;;;;21.62;10.82;;;;;;;0.00;100.00;99806.11;1730612;82;20964;-87
2021/12/09 05:22:56;;;;;;;20.20;11.18;;;;;;;0.01;100.00;99806.52;1720392;82;21197;-84
2021/12/09 05:25:22;;;;;;;23.22;12.15;;;;;;;0.03;100.00;99804.80;1743047;82;21046;-88
2021/12/09 05:27:49;;;;;;;31.90;14.35;;;;;;;0.01;100.00;99809.11;1713815;82;21051;-89
2021/12/09 05:30:23;;;;;;;31.80;13.53;;;;;;;-0.02;100.00;99813.86;1711967;82;21925;-88
2021/12/09 05:32:47;;;;;;;22.52;11.65;;;;;;;-0.04;100.00;99805.66;1706874;83;21086;-89
2021/12/09 05:35:15;;;;;;;26.15;12.40;;;;;;;-0.03;100.00;99809.97;1724733;82;21063;-87
2021/12/09 05:37:43;;;;;;;25.02;11.40;;;;;;;-0.04;100.00;99817.31;1728461;82;21022;-86
2021/12/09 05:40:12;;;;;;;48.63;15.48;;;;;;;-0.06;100.00;99813.42;1744998;82;21047;-87
2021/12/09 05:42:42;;;;;;;18.80;10.08;;;;;;;-0.06;100.00;99819.89;1749722;82;21503;-86
2021/12/09 05:45:10;;;;;;;20.12;10.32;;;;;;;-0.05;100.00;99822.05;1753141;82;20925;-87
2021/12/09 05:47:37;;;;;;;32.15;12.53;;;;;;;-0.06;100.00;99821.19;1753536;82;21844;-88
2021/12/09 05:50:07;;;;;;;22.37;10.85;;;;;;;-0.04;100.00;99826.37;1731099;82;21647;-87
2021/12/09 05:52:37;;;;;;;19.65;10.68;;;;;;;-0.06;100.00;99825.50;1685956;83;21071;-86
2021/12/09 05:55:05;;;;;;;16.87;9.13;;;;;;;-0.06;100.00;99830.69;1730470;82;21202;-88
2021/12/09 05:57:35;;;;;;;19.37;10.63;;;;;;;-0.07;100.00;99836.70;1736643;82;20977;-87
2021/12/09 06:00:05;;;;;;;17.40;9.70;;;;;;;-0.06;100.00;99838.45;1722091;82;21074;-89
2021/12/09 06:02:35;;;;;;;29.05;12.45;;;;;;;-0.07;100.00;99840.18;1705606;84;21067;-88
2021/12/09 06:05:04;;;;;;;23.57;11.68;;;;;;;-0.06;100.00;99840.59;1707184;83;21046;-86
2021/12/09 06:07:35;;;;;;;20.68;11.12;;;;;;;-0.03;100.00;99847.50;1714341;82;21071;-89
2021/12/09 06:10:05;;;;;;;21.52;10.32;;;;;;;-0.03;100.00;99847.06;1721957;82;21100;-87
2021/12/09 06:12:34;;;;;;;26.25;11.97;;;;;;;0.00;100.00;99855.30;1724110;83;21504;-86
2021/12/09 06:15:01;;;;;;;23.90;11.25;;;;;;;0.03;100.00;99865.65;1724432;82;21083;-89
2021/12/09 06:17:28;;;;;;;20.97;10.75;;;;;;;0.02;100.00;99865.20;1726400;82;20927;-87
2021/12/09 06:19:55;;;;;;;23.65;10.90;;;;;;;0.06;100.00;99868.67;1724273;82;22230;-88
2021/12/09 06:22:24;;;;;;;20.95;10.63;;;;;;;0.07;100.00;99877.74;1714043;83;21688;-89
2021/12/09 06:24:52;;;;;;;28.67;13.00;;;;;;;0.08;100.00;99879.45;1711655;83;21100;-88
2021/12/09 06:27:19;;;;;;;20.02;9.50;;;;;;;0.09;100.00;99878.61;1682137;83;21132;-87
2021/12/09 06:29:46;;;;;;;23.65;11.93;;;;;;;0.12;100.00;99885.52;1708281;83;21120;-88
2021/12/09 06:32:12;;;;;;;20.20;10.85;;;;;;;0.12;100.00;99886.37;1720450;82;21099;-87
2021/12/09 06:34:39;;;;;;;23.45;10.48;;;;;;;0.14;100.00;99889.83;1725427;81;21057;-89
2021/12/09 06:37:06;;;;;;;23.60;11.70;;;;;;;0.13;100.00;99889.82;1732586;82;21048;-87
2021/12/09 06:39:36;;;;;;;22.90;10.85;;;;;;;0.14;100.00;99889.83;1722144;82;21136;-90
2021/12/09 06:42:04;;;;;;;20.83;10.57;;;;;;;0.16;100.00;99896.29;1710315;83;21059;-91
2021/12/09 06:44:33;;;;;;;18.80;10.95;;;;;;;0.17;100.00;99896.30;1711089;82;21471;-90
2021/12/09 06:47:00;;;;;;;22.37;11.75;;;;;;;0.19;100.00;99898.47;1718053;83;21097;-87
2021/12/09 06:49:27;;;;;;;23.95;10.38;;;;;;;0.18;100.00;99894.56;1719123;82;21075;-87
2021/12/09 06:51:55;;;;;;;20.23;10.55;;;;;;;0.18;100.00;99898.05;1686865;85;21044;-90
2021/12/09 06:54:23;;;;;;;18.80;10.03;;;;;;;0.18;100.00;99895.45;1683178;84;21072;-88
2021/12/09 06:56:55;;;;;;;34.30;12.68;;;;;;;0.20;100.00;99900.62;1659874;85;21070;-91
2021/12/09 06:59:33;;;;;;;25.45;11.48;;;;;;;0.20;100.00;99901.47;1687614;83;21173;-91
2021/12/09 07:02:00;;;;;;;31.65;12.63;;;;;;;0.19;100.00;99907.53;1628544;85;21102;-90
2021/12/09 07:04:30;;;;;;;27.37;12.93;;;;;;;0.19;100.00;99912.70;1657231;85;20979;-89
2021/12/09 07:06:56;;;;;;;27.02;12.43;;;;;;;0.16;100.00;99911.42;1655275;84;21094;-90
2021/12/09 07:09:28;;;;;;;27.40;11.95;;;;;;;0.18;100.00;99919.17;1645711;85;21321;-92
2021/12/09 07:11:53;;;;;;;22.40;11.03;;;;;;;0.18;100.00;99920.06;1674994;84;21171;-89
2021/12/09 07:14:22;;;;;;;27.13;12.40;;;;;;;0.18;100.00;99917.47;1687442;84;21075;-93
2021/12/09 07:16:58;;;;;;;30.50;11.75;;;;;;;0.16;100.00;99917.89;1688692;83;21075;-93
2021/12/09 07:19:27;;;;;;;23.87;10.98;;;;;;;0.16;100.00;99921.78;1683773;85;21083;-88
2021/12/09 07:21:57;;;;;;;23.62;11.73;;;;;;;0.13;100.00;99920.45;1658780;84;21123;-87
2021/12/09 07:24:34;;;;;;;21.80;11.33;;;;;;;0.12;100.00;99922.63;1692096;83;21020;-87
2021/12/09 07:27:08;;;;;;;22.07;10.75;;;;;;;0.14;100.00;99930.41;1692072;80;21067;-89
2021/12/09 07:29:43;;;;;;;22.70;11.80;;;;;;;0.16;100.00;99929.95;1662710;84;20986;-91
2021/12/09 07:32:12;;;;;;;29.70;13.75;;;;;;;0.20;100.00;99935.14;1651283;83;20988;-90
2021/12/09 07:34:44;;;;;;;27.42;12.70;;;;;;;0.22;100.00;99934.30;1674281;84;21058;-89
2021/12/09 07:37:13;;;;;;;29.63;13.90;;;;;;;0.20;100.00;99940.32;1643807;85;37964;-90
2021/12/09 07:39:45;;;;;;;26.93;12.77;;;;;;;0.23;100.00;99946.38;1652810;84;21086;-88
2021/12/09 07:42:15;;;;;;;21.10;11.25;;;;;;;0.24;100.00;99948.12;1668683;82;21070;-88
2021/12/09 07:44:43;;;;;;;29.55;13.85;;;;;;;0.27;100.00;99950.70;1688936;84;21092;-88
2021/12/09 07:47:12;;;;;;;33.20;14.28;;;;;;;0.29;100.00;99948.55;1684706;84;21151;-88
2021/12/09 07:49:39;;;;;;;33.55;14.40;;;;;;;0.30;100.00;99950.30;1687157;84;21008;-89
2021/12/09 07:52:07;;;;;;;25.00;11.57;;;;;;;0.36;100.00;99955.91;1677858;84;21082;-89
2021/12/09 07:54:33;;;;;;;28.32;12.70;;;;;;;0.38;100.00;99951.59;1669459;84;21824;-88
2021/12/09 07:57:02;;;;;;;30.08;12.93;;;;;;;0.41;100.00;99956.77;1650261;85;21390;-90
2021/12/09 07:59:29;;;;;;;39.58;14.68;;;;;;;0.43;100.00;99955.05;1687084;84;21184;-87
2021/12/09 08:01:55;;;;;;;23.55;11.97;;;;;;;0.43;100.00;99957.64;1661285;84;21087;-91
2021/12/09 08:04:22;;;;;;;29.57;13.90;;;;;;;0.43;100.00;99962.81;1670130;84;21095;-87
2021/12/09 08:06:48;;;;;;;26.33;13.00;;;;;;;0.43;100.00;99957.64;1702560;84;21089;-90
2021/12/09 08:09:15;;;;;;;29.25;14.78;;;;;;;0.45;100.00;99964.98;1683916;84;21055;-87
2021/12/09 08:11:43;;;;;;;29.15;13.43;;;;;;;0.46;100.00;99967.13;1693019;84;21127;-87
2021/12/09 08:14:11;;;;;;;31.42;13.83;;;;;;;0.46;100.00;99964.55;1667044;85;21527;-86
2021/12/09 08:16:39;;;;;;;33.55;15.35;;;;;;;0.44;100.00;99965.86;1674914;85;21134;-86
2021/12/09 08:19:08;;;;;;;32.95;14.85;;;;;;;0.46;100.00;99968.02;1685327;84;21074;-90
2021/12/09 08:21:36;;;;;;;32.53;13.45;;;;;;;0.45;100.00;99969.31;1654063;83;21055;-89
2021/12/09 08:24:04;;;;;;;33.55;14.87;;;;;;;0.44;100.00;99967.16;1690014;83;21250;-90
2021/12/09 08:26:33;;;;;;;37.15;15.32;;;;;;;0.46;100.00;99964.55;1684380;83;21080;-87
2021/12/09 08:29:00;;;;;;;36.60;16.30;;;;;;;0.49;100.00;99968.02;1648945;86;21099;-87
2021/12/09 08:31:29;;;;;;;31.95;15.53;;;;;;;0.53;100.00;99974.94;1646328;86;21210;-89
2021/12/09 08:33:57;;;;;;;29.35;13.90;;;;;;;0.55;100.00;99973.22;1650989;83;21124;-89
2021/12/09 08:36:39;;;;;;;38.83;16.60;;;;;;;0.63;100.00;99970.19;1666394;85;21064;-89
2021/12/09 08:39:07;;;;;;;30.88;13.93;;;;;;;0.74;100.00;99972.80;1687994;84;21127;-89
2021/12/09 08:41:34;;;;;;;32.70;14.90;;;;;;;0.77;100.00;99971.92;1703847;83;21942;-89
2021/12/09 08:44:01;;;;;;;26.80;14.40;;;;;;;0.87;100.00;99972.78;1704007;84;21107;-90
2021/12/09 08:46:28;;;;;;;25.75;13.95;;;;;;;0.82;100.00;99965.86;1703717;84;21080;-88
2021/12/09 08:48:57;;;;;;;41.13;16.42;;;;;;;0.86;100.00;99968.03;1703149;84;21092;-88
2021/12/09 08:51:24;;;;;;;33.83;14.28;;;;;;;0.88;100.00;99975.39;1699385;83;21232;-90
2021/12/09 08:53:53;;;;;;;33.60;15.48;;;;;;;0.86;100.00;99974.96;1647281;87;21091;-88
2021/12/09 08:56:22;;;;;;;40.28;14.93;;;;;;;0.83;100.00;99981.88;1663632;86;21060;-88
2021/12/09 08:58:49;;;;;;;29.25;13.80;;;;;;;0.81;100.00;99978.84;1675239;84;21094;-89
2021/12/09 09:01:18;;;;;;;35.23;16.02;;;;;;;0.74;100.00;99974.53;1676928;84;21610;-90
2021/12/09 09:03:53;;;;;;;34.70;14.18;;;;;;;0.72;100.00;99974.95;1653712;85;21042;-91
2021/12/09 09:06:19;;;;;;;33.75;14.05;;;;;;;0.71;100.00;99979.69;1679623;81;21274;-92
2021/12/09 09:08:51;;;;;;;29.18;15.45;;;;;;;0.70;100.00;99985.31;1678609;85;21028;-87
2021/12/09 09:11:18;;;;;;;29.85;15.10;;;;;;;0.66;100.00;99980.13;1675727;84;21022;-88
2021/12/09 09:13:45;;;;;;;39.55;15.05;;;;;;;0.62;100.00;99973.66;1675358;85;21289;-89
2021/12/09 09:16:12;;;;;;;29.23;13.83;;;;;;;0.62;100.00;99973.66;1689310;84;21050;-88
2021/12/09 09:18:38;;;;;;;28.90;12.50;;;;;;;0.58;100.00;99971.91;1677159;85;21075;-87
2021/12/09 09:21:04;;;;;;;32.45;15.25;;;;;;;0.60;100.00;99971.48;1705495;83;21105;-86
2021/12/09 09:23:31;;;;;;;31.80;15.60;;;;;;;0.58;100.00;99974.51;1703038;84;21075;-84
2021/12/09 09:27:31;;;;;;;33.50;15.03;;;;;;;0.60;100.00;99964.16;1809124;79;22472;-73
2021/12/09 09:29:57;;;;;;;31.27;15.48;;;;;;;0.58;100.00;99969.33;1765342;80;21844;-72
2021/12/09 09:32:24;;;;;;;38.53;16.50;;;;;;;0.58;100.00;99973.21;1755578;81;21123;-71
2021/12/09 09:34:53;;;;;;;34.03;14.58;;;;;;;0.59;100.00;99968.45;1774554;80;21516;-72
2021/12/09 09:37:18;;;;;;;32.03;14.65;;;;;;;0.58;100.00;99970.62;1775743;80;21557;-72
2021/12/09 09:39:45;;;;;;;38.70;16.97;;;;;;;0.60;100.00;99977.11;1776071;80;21025;-71
2021/12/09 09:44:54;;;;;;;32.58;15.72;;;;;;;0.57;100.00;99977.94;1776002;80;22170;-72
2021/12/09 09:47:16;;;;;;;34.88;16.23;;;;;;;0.62;100.00;99979.24;1775577;80;21024;-70
2021/12/09 09:49:43;;;;;;;38.33;18.77;;;;;;;0.63;100.00;99977.11;1772811;80;21062;-70
2021/12/09 09:52:10;;;;;;;46.65;18.67;;;;;;;0.70;100.00;99974.09;1728474;80;28658;-70
2021/12/09 09:54:38;;;;;;;36.25;17.45;;;;;;;0.69;100.00;99974.93;1752770;81;22191;-71
2021/12/09 09:57:07;;;;;;;38.60;17.30;;;;;;;0.67;100.00;99970.17;1737429;81;21077;-71
2021/12/09 09:59:34;;;;;;;39.65;15.63;;;;;;;0.70;100.00;99970.20;1747804;81;21993;-73
2021/12/09 10:02:01;;;;;;;35.60;16.50;;;;;;;0.72;100.00;99965.88;1759042;81;21085;-70
2021/12/09 10:04:43;;;;;;;38.88;18.07;;;;;;;0.77;100.00;99965.45;1759260;81;21333;-71
2021/12/09 10:07:01;;;;;;;28.90;14.25;;;;;;;0.81;100.00;99967.19;1757684;81;21103;-70
2021/12/09 10:09:28;;;;;;;36.80;18.00;;;;;;;0.84;100.00;99969.77;1759177;81;21100;-69
2021/12/09 10:11:59;;;;;;;34.98;16.65;;;;;;;0.87;100.00;99971.48;1755228;81;21009;-70
2021/12/09 10:14:29;;;;;;;33.78;16.07;;;;;;;0.86;100.00;99973.22;1749767;81;21009;-69
2021/12/09 10:17:14;;;;;;;34.55;16.50;;;;;;;0.88;100.00;99979.28;1725172;81;21060;-69
2021/12/09 10:19:50;;;;;;;39.05;17.15;;;;;;;0.85;100.00;99974.06;1721563;81;21084;-69
2021/12/09 10:22:27;;;;;;;37.85;16.02;;;;;;;0.82;100.00;99970.19;1720116;81;21195;-69
2021/12/09 10:24:55;;;;;;;30.32;14.95;;;;;;;0.80;100.00;99970.63;1718984;83;21735;-68
2021/12/09 10:27:34;;;;;;;39.33;16.37;;;;;;;0.78;100.00;99972.34;1722621;83;21108;-69
2021/12/09 10:30:19;;;;;;;33.63;16.25;;;;;;;0.76;100.00;99980.55;1734997;81;21056;-71
2021/12/09 10:32:44;;;;;;;35.13;17.35;;;;;;;0.75;100.00;99975.80;1737574;82;21107;-69
2021/12/09 10:35:17;;;;;;;35.43;15.85;;;;;;;0.76;100.00;99973.66;1727398;82;21904;-69
2021/12/09 10:37:47;;;;;;;40.98;18.57;;;;;;;0.76;100.00;99976.25;1723189;83;21047;-68
2021/12/09 10:40:19;;;;;;;42.17;16.80;;;;;;;0.80;100.00;99985.73;1723314;83;21109;-69
2021/12/09 10:42:52;;;;;;;32.30;15.35;;;;;;;0.83;100.00;99983.60;1721895;83;21779;-69
2021/12/09 10:45:30;;;;;;;35.70;17.23;;;;;;;0.81;100.00;99982.73;1722709;83;21118;-69
2021/12/09 10:48:31;;;;;;;32.67;15.72;;;;;;;0.79;100.00;99980.57;1723089;83;21147;-68
2021/12/09 10:55:54;;;;;;;;;;;;;;;0.84;100.00;99994.39;1724935;83;21080;-70
2021/12/09 10:58:28;;;;;;;29.52;15.50;;;;;;;0.86;100.00;99994.41;1723901;83;20955;-70
2021/12/09 11:01:02;;;;;;;33.33;16.57;;;;;;;0.83;100.00;99988.79;1722895;83;21495;-68
2021/12/09 11:03:41;;;;;;;31.05;14.47;;;;;;;0.83;100.00;99992.23;1721752;83;21106;-69
2021/12/09 11:06:18;;;;;;;29.98;15.25;;;;;;;0.83;100.00;99994.83;1721114;83;21095;-69
2021/12/09 11:08:51;;;;;;;35.45;14.73;;;;;;;0.84;100.00;99994.39;1690104;84;21038;-68
2021/12/09 11:11:34;;;;;;;36.23;15.72;;;;;;;0.86;100.00;99990.08;1670360;85;21658;-69
2021/12/09 11:14:13;;;;;;;44.33;18.15;;;;;;;0.88;100.00;99987.49;1671281;85;21211;-69
2021/12/09 11:16:50;;;;;;;32.30;15.18;;;;;;;0.88;100.00;99989.64;1671017;85;22297;-69
2021/12/09 11:22:05;;;;;;;29.85;13.78;;;;;;;0.92;100.00;99999.16;1669370;85;21589;-68
2021/12/09 11:24:37;;;;;;;27.15;13.68;;;;;;;0.93;100.00;99993.09;1670290;85;21579;-68
2021/12/09 11:27:08;;;;;;;23.77;11.80;;;;;;;0.93;100.00;99992.23;1667594;84;21151;-67
2021/12/09 11:29:45;;;;;;;29.52;14.85;;;;;;;0.93;100.00;99995.69;1663646;86;21551;-69
2021/12/09 11:32:35;;;;;;;27.05;13.70;;;;;;;0.93;100.00;99989.64;1632931;84;21632;-70
2021/12/09 11:35:14;;;;;;;23.57;12.10;;;;;;;0.92;100.00;99987.49;1589896;88;21103;-68
2021/12/09 11:37:45;;;;;;;29.72;13.85;;;;;;;0.90;100.00;99985.73;1671202;85;21543;-70
2021/12/09 11:40:32;;;;;;;29.80;14.38;;;;;;;0.90;100.00;99986.63;1670638;85;21756;-68
2021/12/09 11:42:59;;;;;;;29.57;15.25;;;;;;;0.89;100.00;99993.95;1669989;85;21119;-70